createdAt,value
2018-11-27T00:03:43.430Z,31.10
2018-11-27T00:08:53.619Z,37.87
2018-11-27T00:14:03.488Z,28.83
2018-11-27T00:19:14.931Z,30.83
2018-11-27T00:24:15.780Z,36.77
2018-11-27T00:29:16.443Z,32.53
2018-11-27T00:34:17.953Z,29.63
2018-11-27T00:39:18.520Z,29.53
2018-11-27T00:44:19.968Z,30.43
2018-11-27T00:49:20.609Z,31.63
2018-11-27T00:54:21.331Z,32.53
2018-11-27T00:59:21.947Z,38.63
2018-11-27T01:04:22.518Z,28.40
2018-11-27T01:09:23.204Z,30.10
2018-11-27T01:14:23.789Z,39.00
2018-11-27T01:19:24.636Z,35.87
2018-11-27T01:24:25.253Z,35.60
2018-11-27T01:29:25.866Z,32.00
2018-11-27T01:34:26.715Z,36.20
2018-11-27T01:39:27.375Z,36.37
2018-11-27T01:44:28.063Z,38.03
2018-11-27T01:49:28.954Z,39.20
2018-11-27T01:54:29.729Z,35.73
2018-11-27T01:59:30.345Z,39.03
2018-11-27T02:04:31.069Z,35.50
2018-11-27T02:09:31.668Z,29.97
2018-11-27T02:14:32.256Z,41.53
2018-11-27T02:19:32.890Z,34.30
2018-11-27T02:24:33.634Z,33.07
2018-11-27T02:29:34.406Z,39.47
2018-11-27T02:34:35.107Z,34.07
2018-11-27T02:39:35.723Z,34.17
2018-11-27T02:44:36.356Z,34.23
2018-11-27T02:49:36.821Z,38.67
2018-11-27T02:54:37.289Z,40.10
2018-11-27T02:59:38.101Z,38.50
2018-11-27T03:04:38.859Z,34.37
2018-11-27T03:09:39.371Z,36.27
2018-11-27T03:14:40.179Z,32.77
2018-11-27T03:19:40.749Z,32.77
2018-11-27T03:24:41.357Z,35.50
2018-11-27T03:29:42.087Z,34.63
2018-11-27T03:34:42.808Z,40.23
2018-11-27T03:39:43.500Z,34.70
2018-11-27T03:44:44.260Z,31.83
2018-11-27T03:49:45.024Z,32.67
2018-11-27T03:54:45.817Z,35.30
2018-11-27T03:59:46.474Z,34.27
2018-11-27T04:04:47.306Z,32.73
2018-11-27T04:09:47.919Z,46.13
2018-11-27T04:14:48.716Z,30.70
2018-11-27T04:19:49.440Z,37.03
2018-11-27T04:24:50.139Z,39.33
2018-11-27T04:29:50.961Z,33.17
2018-11-27T04:34:51.775Z,32.33
2018-11-27T04:39:52.061Z,34.90
2018-11-27T04:44:52.693Z,29.40
2018-11-27T04:49:53.392Z,26.23
2018-11-27T04:54:54.123Z,22.13
2018-11-27T04:59:54.828Z,27.97
2018-11-27T05:04:55.483Z,26.23
2018-11-27T05:09:56.144Z,22.17
2018-11-27T05:14:56.965Z,32.17
2018-11-27T05:19:57.569Z,28.93
2018-11-27T05:24:58.279Z,25.83
2018-11-27T05:29:58.860Z,24.30
2018-11-27T05:34:59.643Z,26.27
2018-11-27T05:40:00.210Z,22.70
2018-11-27T05:45:00.991Z,24.10
2018-11-27T05:50:01.456Z,18.37
2018-11-27T05:55:02.514Z,22.63
2018-11-27T06:00:03.224Z,22.93
2018-11-27T06:05:08.160Z,21.90
2018-11-27T06:10:11.481Z,21.43
2018-11-27T06:15:17.473Z,17.70
2018-11-27T06:20:20.487Z,21.33
2018-11-27T06:25:24.279Z,21.00
2018-11-27T06:30:26.167Z,19.37
2018-11-27T06:35:29.201Z,20.43
2018-11-27T06:40:30.942Z,18.80
2018-11-27T06:45:31.616Z,21.20
2018-11-27T06:50:32.896Z,17.53
2018-11-27T06:55:33.633Z,21.87
2018-11-27T07:00:34.309Z,19.17
2018-11-27T07:05:37.006Z,20.87
2018-11-27T07:10:38.745Z,25.97
2018-11-27T07:15:39.294Z,20.00
2018-11-27T07:20:39.921Z,23.03
2018-11-27T07:25:40.576Z,18.37
2018-11-27T07:30:42.942Z,16.40
2018-11-27T07:35:43.551Z,23.83
2018-11-27T07:40:44.267Z,19.77
2018-11-27T07:45:44.804Z,23.00
2018-11-27T07:50:45.507Z,23.17
2018-11-27T07:55:46.272Z,25.30
2018-11-27T08:00:46.944Z,21.03
2018-11-27T08:05:47.667Z,22.00
2018-11-27T08:10:49.144Z,23.90
2018-11-27T08:15:49.775Z,28.57
2018-11-27T08:20:50.564Z,23.63
2018-11-27T08:25:50.842Z,24.67
2018-11-27T08:30:51.597Z,22.90
2018-11-27T08:35:52.222Z,28.57
2018-11-27T08:40:53.028Z,27.93
2018-11-27T08:45:53.417Z,20.10
2018-11-27T08:50:54.130Z,30.07
2018-11-27T08:55:54.889Z,22.27
2018-11-27T09:00:55.464Z,25.10
2018-11-27T09:05:56.260Z,22.47
2018-11-27T09:10:57.297Z,29.43
2018-11-27T09:15:58.408Z,25.90
2018-11-27T09:20:58.989Z,25.27
2018-11-27T09:25:59.552Z,26.13
2018-11-27T09:31:00.306Z,30.47
2018-11-27T09:36:00.877Z,25.43
2018-11-27T09:41:01.645Z,28.63
2018-11-27T09:46:02.275Z,26.53
2018-11-27T09:51:02.825Z,30.70
2018-11-27T09:56:03.471Z,28.80
2018-11-27T10:01:04.303Z,29.50
2018-11-27T10:06:05.270Z,30.80
2018-11-27T10:11:06.460Z,38.00
2018-11-27T10:16:06.979Z,35.10
2018-11-27T10:21:07.571Z,28.87
2018-11-27T10:26:08.208Z,30.23
2018-11-27T10:31:08.741Z,25.23
2018-11-27T10:36:09.456Z,27.50
2018-11-27T10:41:10.272Z,29.60
2018-11-27T10:46:10.825Z,30.10
2018-11-27T10:51:11.618Z,25.83
2018-11-27T10:56:12.378Z,30.87
2018-11-27T11:01:18.213Z,29.63
2018-11-27T11:06:18.985Z,25.67
2018-11-27T11:11:19.767Z,27.70
2018-11-27T11:16:20.289Z,32.67
2018-11-27T11:21:21.014Z,32.23
2018-11-27T11:26:21.503Z,31.53
2018-11-27T11:31:26.539Z,28.87
2018-11-27T11:47:54.474Z,34.40
2018-11-27T11:52:57.629Z,33.83
2018-11-27T11:58:14.340Z,31.00
2018-11-27T12:03:14.904Z,28.10
2018-11-27T12:08:15.730Z,24.40
2018-11-27T12:13:37.658Z,32.00
2018-11-27T12:18:38.274Z,30.00
2018-11-27T12:23:38.792Z,26.70
2018-11-27T12:28:39.487Z,27.43
2018-11-27T12:33:39.822Z,28.63
2018-11-27T12:38:40.422Z,25.50
2018-11-27T12:43:41.120Z,29.53
2018-11-27T12:48:41.804Z,26.83
2018-11-27T12:53:45.614Z,28.50
2018-11-27T12:58:46.634Z,26.27
2018-11-27T13:03:47.522Z,23.23
2018-11-27T13:08:49.017Z,27.20
2018-11-27T13:13:50.414Z,27.67
2018-11-27T13:18:51.226Z,28.40
2018-11-27T13:23:52.381Z,31.37
2018-11-27T13:28:53.019Z,39.57
2018-11-27T13:34:06.780Z,33.60
2018-11-27T13:39:18.581Z,27.67
2018-11-27T13:44:19.125Z,38.43
2018-11-27T13:49:19.654Z,36.60
2018-11-27T13:54:20.325Z,31.43
2018-11-27T13:59:20.998Z,34.10
2018-11-27T14:04:21.730Z,33.97
2018-11-27T14:09:22.521Z,33.33
2018-11-27T14:14:23.244Z,33.63
2018-11-27T14:19:24.072Z,31.00
2018-11-27T14:24:24.817Z,28.10
2018-11-27T14:29:25.973Z,28.80
2018-11-27T14:34:26.693Z,34.00
2018-11-27T14:39:27.248Z,28.27
2018-11-27T14:44:29.781Z,28.93
2018-11-27T14:49:30.510Z,30.40
2018-11-27T14:54:31.175Z,31.40
2018-11-27T14:59:31.851Z,31.33
2018-11-27T15:04:33.111Z,36.87
2018-11-27T15:09:36.416Z,36.00
2018-11-27T15:14:37.844Z,43.20
2018-11-27T15:19:39.265Z,38.13
2018-11-27T15:24:40.924Z,30.33
2018-11-27T15:29:41.760Z,31.37
2018-11-27T15:34:42.554Z,26.83
2018-11-27T15:39:43.627Z,34.50
2018-11-27T15:44:44.400Z,32.60
2018-11-27T15:49:45.338Z,38.23
2018-11-27T15:54:46.093Z,30.87
2018-11-27T16:05:18.012Z,30.37
2018-11-27T16:10:19.324Z,31.57
2018-11-27T16:15:20.842Z,34.20
2018-11-27T16:20:22.356Z,37.13
2018-11-27T16:25:25.751Z,27.37
2018-11-27T16:30:27.847Z,33.50
2018-11-27T16:35:28.641Z,28.27
2018-11-27T16:40:33.058Z,33.27
2018-11-27T16:45:34.006Z,27.77
2018-11-27T16:50:34.827Z,29.33
2018-11-27T16:56:32.844Z,34.50
2018-11-27T17:01:34.903Z,33.40
2018-11-27T17:06:35.755Z,31.90
2018-11-27T17:11:38.421Z,32.07
2018-11-27T17:22:11.011Z,31.50
2018-11-27T17:27:15.245Z,29.73
2018-11-27T17:38:02.945Z,38.20
2018-11-27T17:43:04.284Z,32.97
2018-11-27T17:48:05.830Z,39.90
2018-11-27T17:53:07.336Z,36.70
2018-11-27T17:58:08.192Z,27.53
2018-11-27T18:03:10.747Z,25.43
2018-11-27T18:08:11.667Z,38.07
2018-11-27T18:13:12.525Z,29.70
2018-11-27T18:18:13.171Z,36.17
2018-11-27T18:23:14.568Z,40.67
2018-11-27T18:28:17.872Z,30.53
2018-11-27T18:33:18.593Z,28.40
2018-11-27T18:38:19.412Z,31.17
2018-11-27T18:43:20.255Z,30.47
2018-11-27T18:48:21.119Z,32.07
2018-11-27T18:53:21.983Z,26.97
2018-11-27T18:58:22.436Z,35.10
2018-11-27T19:03:23.001Z,27.60
2018-11-27T19:08:23.924Z,33.40
2018-11-27T19:13:25.012Z,26.83
2018-11-27T19:18:27.012Z,29.03
2018-11-27T19:23:28.366Z,30.13
2018-11-27T19:28:30.112Z,27.30
2018-11-27T19:33:33.659Z,33.07
2018-11-27T19:38:34.404Z,22.00
2018-11-27T19:43:35.226Z,34.20
2018-11-27T19:48:36.860Z,30.23
2018-11-27T19:53:37.598Z,29.77
2018-11-27T19:58:38.518Z,28.47
2018-11-27T20:03:39.534Z,29.23
2018-11-27T20:08:40.275Z,26.63
2018-11-27T20:13:41.381Z,33.20
2018-11-27T20:18:42.245Z,35.60
2018-11-27T20:23:43.420Z,29.07
2018-11-27T20:28:44.210Z,32.53
2018-11-27T20:33:45.281Z,29.47
2018-11-27T20:38:46.422Z,29.73
2018-11-27T20:43:47.117Z,29.00
2018-11-27T20:48:48.333Z,27.30
2018-11-27T20:53:49.916Z,26.33
2018-11-27T20:58:51.573Z,31.00
2018-11-27T21:03:52.387Z,30.73
2018-11-27T21:08:53.513Z,32.40
2018-11-27T21:13:54.228Z,33.00
2018-11-27T21:18:55.189Z,29.70
2018-11-27T21:23:56.122Z,26.03
2018-11-27T21:28:56.927Z,29.63
2018-11-27T21:33:57.535Z,30.30
2018-11-27T21:39:03.129Z,33.93
2018-11-27T21:44:04.555Z,28.93
2018-11-27T21:49:06.015Z,33.43
2018-11-27T21:54:07.395Z,31.47
2018-11-27T21:59:08.540Z,28.93
2018-11-27T22:04:09.185Z,30.07
2018-11-27T22:09:09.986Z,32.03
2018-11-27T22:14:10.973Z,31.20
2018-11-27T22:19:12.033Z,35.93
2018-11-27T22:24:12.732Z,26.37
2018-11-27T22:29:14.126Z,32.77
2018-11-27T22:34:15.039Z,39.67
2018-11-27T22:39:15.921Z,35.00
2018-11-27T22:44:16.628Z,36.40
2018-11-27T22:49:18.537Z,31.40
2018-11-27T22:54:19.203Z,34.93
2018-11-27T22:59:19.803Z,33.97
2018-11-27T23:04:20.494Z,35.23
2018-11-27T23:09:21.452Z,33.53
2018-11-27T23:14:22.102Z,30.63
2018-11-27T23:19:23.097Z,30.93
2018-11-27T23:24:23.987Z,32.23
2018-11-27T23:29:24.554Z,32.57
2018-11-27T23:34:25.226Z,39.27
2018-11-27T23:39:25.941Z,39.67
2018-11-27T23:44:26.718Z,34.53
2018-11-27T23:49:27.321Z,41.30
2018-11-27T23:54:28.217Z,30.80
2018-11-27T23:59:29.019Z,36.73
